createdAt,value
2018-08-11T00:00:49.179Z,84.47
2018-08-11T00:01:49.332Z,84.38
2018-08-11T00:02:49.480Z,83.33
2018-08-11T00:03:49.631Z,83.99
2018-08-11T00:04:49.780Z,84.38
2018-08-11T00:05:49.932Z,84.09
2018-08-11T00:06:50.088Z,84.47
2018-08-11T00:07:50.246Z,84.76
2018-08-11T00:08:50.389Z,84.19
2018-08-11T00:09:50.541Z,84.28
2018-08-11T00:10:50.694Z,84.38
2018-08-11T00:11:50.846Z,84.66
2018-08-11T00:12:50.998Z,84.85
2018-08-11T00:13:51.149Z,84.76
2018-08-11T00:14:51.302Z,84.85
2018-08-11T00:15:51.454Z,85.24
2018-08-11T00:16:51.603Z,85.24
2018-08-11T00:17:51.753Z,85.05
2018-08-11T00:18:51.909Z,85.14
2018-08-11T00:19:52.061Z,85.24
2018-08-11T00:20:52.212Z,86.00
2018-08-11T00:21:52.363Z,85.14
2018-08-11T00:22:52.511Z,85.62
2018-08-11T00:23:52.666Z,85.52
2018-08-11T00:24:52.815Z,85.62
2018-08-11T00:25:52.966Z,85.67
2018-08-11T00:26:53.117Z,86.53
2018-08-11T00:27:53.269Z,87.58
2018-08-11T00:28:53.418Z,87.68
2018-08-11T00:29:53.569Z,87.29
2018-08-11T00:30:53.719Z,87.39
2018-08-11T00:31:53.870Z,87.20
2018-08-11T00:32:54.022Z,86.76
2018-08-11T00:33:54.169Z,86.47
2018-08-11T00:34:54.320Z,85.81
2018-08-11T00:35:54.521Z,85.24
2018-08-11T00:36:54.623Z,85.42
2018-08-11T00:37:54.774Z,85.71
2018-08-11T00:38:54.926Z,85.62
2018-08-11T00:39:55.074Z,85.62
2018-08-11T00:40:55.229Z,85.05
2018-08-11T00:41:55.385Z,84.76
2018-08-11T00:42:55.531Z,84.38
2018-08-11T00:43:55.686Z,84.28
2018-08-11T00:44:55.834Z,84.66
2018-08-11T00:45:55.988Z,84.09
2018-08-11T00:46:56.136Z,85.14
2018-08-11T00:47:56.286Z,85.24
2018-08-11T00:48:56.441Z,84.95
2018-08-11T00:49:56.590Z,85.33
2018-08-11T00:50:56.740Z,85.62
2018-08-11T00:51:56.891Z,86.10
2018-08-11T00:52:57.041Z,85.81
2018-08-11T00:53:57.192Z,86.29
2018-08-11T00:54:57.343Z,86.15
2018-08-11T00:55:57.494Z,86.38
2018-08-11T00:56:57.645Z,86.57
2018-08-11T00:57:57.796Z,86.34
2018-08-11T00:58:57.946Z,86.72
2018-08-11T00:59:58.097Z,86.53
2018-08-11T01:00:58.251Z,86.82
2018-08-11T01:01:58.407Z,87.01
2018-08-11T01:02:58.564Z,87.58
2018-08-11T01:03:58.712Z,87.48
2018-08-11T01:04:58.863Z,87.39
2018-08-11T01:05:59.013Z,87.68
2018-08-11T01:06:59.165Z,87.77
2018-08-11T01:07:59.316Z,87.77
2018-08-11T01:08:59.466Z,88.25
2018-08-11T01:09:59.617Z,88.25
2018-08-11T01:10:59.866Z,88.44
2018-08-11T01:11:59.921Z,88.06
2018-08-11T01:13:00.073Z,88.92
2018-08-11T01:14:00.218Z,88.92
2018-08-11T01:15:00.374Z,89.25
2018-08-11T01:16:00.517Z,89.83
2018-08-11T01:17:00.670Z,90.02
2018-08-11T01:18:00.820Z,89.83
2018-08-11T01:19:00.971Z,90.21
2018-08-11T01:20:01.121Z,89.73
2018-08-11T01:21:01.277Z,90.11
2018-08-11T01:22:01.429Z,89.35
2018-08-11T01:23:01.578Z,89.45
2018-08-11T01:24:01.727Z,89.35
2018-08-11T01:25:01.881Z,89.73
2018-08-11T01:26:02.032Z,89.54
2018-08-11T01:27:02.184Z,90.21
2018-08-11T01:28:02.337Z,89.45
2018-08-11T01:29:02.486Z,89.54
2018-08-11T01:30:02.636Z,90.11
2018-08-11T01:31:02.788Z,90.31
2018-08-11T01:32:02.939Z,90.11
2018-08-11T01:33:03.088Z,90.40
2018-08-11T01:34:03.241Z,89.92
2018-08-11T01:35:03.393Z,90.50
2018-08-11T01:36:03.543Z,90.59
2018-08-11T01:37:03.693Z,90.50
2018-08-11T01:38:03.843Z,90.69
2018-08-11T01:39:03.993Z,90.02
2018-08-11T01:40:04.144Z,90.11
2018-08-11T01:41:04.297Z,90.02
2018-08-11T01:42:04.445Z,89.92
2018-08-11T01:43:04.597Z,90.31
2018-08-11T01:44:04.795Z,90.78
2018-08-11T01:45:04.896Z,91.55
2018-08-11T01:46:05.046Z,91.78
2018-08-11T01:47:05.196Z,92.83
2018-08-11T01:48:05.348Z,92.46
2018-08-11T01:49:05.499Z,92.26
2018-08-11T01:50:05.650Z,92.02
2018-08-11T01:51:05.800Z,92.21
2018-08-11T01:52:05.952Z,92.21
2018-08-11T01:53:06.102Z,92.55
2018-08-11T01:54:06.251Z,91.55
2018-08-11T01:55:06.401Z,91.64
2018-08-11T01:56:06.549Z,91.64
2018-08-11T01:57:06.698Z,91.64
2018-08-11T01:58:06.848Z,91.26
2018-08-11T01:59:07.000Z,91.45
2018-08-11T02:00:07.151Z,91.64
2018-08-11T02:01:07.300Z,91.07
2018-08-11T02:02:07.450Z,91.74
2018-08-11T02:03:07.599Z,91.78
2018-08-11T02:04:07.749Z,91.78
2018-08-11T02:05:07.900Z,91.64
2018-08-11T02:06:08.050Z,91.26
2018-08-11T02:07:08.201Z,91.36
2018-08-11T02:08:08.350Z,90.88
2018-08-11T02:09:08.502Z,91.16
2018-08-11T02:10:08.653Z,90.97
2018-08-11T02:11:08.813Z,90.50
2018-08-11T02:12:08.956Z,90.59
2018-08-11T02:13:09.105Z,90.97
2018-08-11T02:14:09.255Z,90.88
2018-08-11T02:15:09.404Z,91.02
2018-08-11T02:16:09.553Z,91.02
2018-08-11T02:17:09.705Z,91.31
2018-08-11T02:18:09.856Z,91.45
2018-08-11T02:19:10.002Z,91.26
2018-08-11T02:20:10.152Z,91.45
2018-08-11T02:21:10.302Z,90.88
2018-08-11T02:22:10.452Z,91.41
2018-08-11T02:23:10.601Z,91.64
2018-08-11T02:24:10.747Z,92.26
2018-08-11T02:25:10.896Z,92.17
2018-08-11T02:26:11.047Z,91.98
2018-08-11T02:27:11.197Z,92.36
2018-08-11T02:28:11.350Z,92.31
2018-08-11T02:29:11.499Z,92.41
2018-08-11T02:30:11.648Z,92.17
2018-08-11T02:31:11.800Z,92.26
2018-08-11T02:32:11.952Z,92.60
2018-08-11T02:33:12.099Z,92.12
2018-08-11T02:34:12.271Z,92.07
2018-08-11T02:35:12.399Z,92.31
2018-08-11T02:36:12.547Z,92.02
2018-08-11T02:37:12.700Z,92.12
2018-08-11T02:38:12.848Z,91.64
2018-08-11T02:39:12.999Z,92.41
2018-08-11T02:40:13.152Z,91.64
2018-08-11T02:41:13.300Z,91.45
2018-08-11T02:42:13.448Z,91.64
2018-08-11T02:43:13.599Z,91.83
2018-08-11T02:44:13.756Z,92.21
2018-08-11T02:45:13.896Z,92.74
2018-08-11T02:46:14.049Z,93.41
2018-08-11T02:47:14.197Z,93.51
2018-08-11T02:48:14.347Z,93.60
2018-08-11T02:49:14.502Z,93.60
2018-08-11T02:50:14.660Z,93.31
2018-08-11T02:51:14.814Z,93.60
2018-08-11T02:52:14.942Z,93.88
2018-08-11T02:53:15.093Z,93.79
2018-08-11T02:54:15.243Z,93.51
2018-08-11T02:55:15.394Z,94.07
2018-08-11T02:56:15.546Z,93.98
2018-08-11T02:57:15.695Z,94.36
2018-08-11T02:58:15.846Z,94.74
2018-08-11T02:59:15.997Z,94.84
2018-08-11T03:00:16.148Z,94.17
2018-08-11T03:01:16.298Z,94.46
2018-08-11T03:02:16.515Z,93.60
2018-08-11T03:03:16.605Z,93.41
2018-08-11T03:04:16.748Z,93.41
2018-08-11T03:05:16.895Z,92.93
2018-08-11T03:06:17.049Z,93.22
2018-08-11T03:07:17.201Z,93.12
2018-08-11T03:08:17.346Z,93.70
2018-08-11T03:09:17.501Z,92.93
2018-08-11T03:10:17.649Z,92.55
2018-08-11T03:11:17.797Z,91.83
2018-08-11T03:12:17.976Z,92.12
2018-08-11T03:13:18.107Z,91.64
2018-08-11T03:14:18.248Z,91.16
2018-08-11T03:15:18.401Z,90.78
2018-08-11T03:16:18.550Z,90.97
2018-08-11T03:17:18.701Z,90.21
2018-08-11T03:18:18.853Z,90.50
2018-08-11T03:19:19.001Z,90.78
2018-08-11T03:20:19.153Z,91.07
2018-08-11T03:21:19.302Z,90.78
2018-08-11T03:22:19.456Z,91.36
2018-08-11T03:23:19.604Z,91.74
2018-08-11T03:24:19.755Z,91.83
2018-08-11T03:25:19.905Z,91.74
2018-08-11T03:26:20.055Z,92.41
2018-08-11T03:27:20.206Z,92.60
2018-08-11T03:28:20.360Z,92.31
2018-08-11T03:29:20.510Z,91.74
2018-08-11T03:30:20.660Z,91.55
2018-08-11T03:31:20.812Z,91.74
2018-08-11T03:32:20.961Z,91.64
2018-08-11T03:33:21.114Z,91.74
2018-08-11T03:34:21.263Z,92.31
2018-08-11T03:35:21.414Z,92.02
2018-08-11T03:36:21.594Z,92.50
2018-08-11T03:37:21.722Z,92.21
2018-08-11T03:38:21.870Z,91.55
2018-08-11T03:39:22.020Z,92.12
2018-08-11T03:40:22.172Z,91.64
2018-08-11T03:41:22.321Z,91.55
2018-08-11T03:42:22.472Z,92.31
2018-08-11T03:43:22.619Z,92.50
2018-08-11T03:44:22.770Z,92.12
2018-08-11T03:45:22.928Z,91.45
2018-08-11T03:46:23.072Z,91.36
2018-08-11T03:47:23.224Z,90.59
2018-08-11T03:48:23.375Z,90.50
2018-08-11T03:49:23.525Z,91.26
2018-08-11T03:50:23.679Z,90.69
2018-08-11T03:51:23.830Z,90.40
2018-08-11T03:52:24.018Z,90.88
2018-08-11T03:53:24.128Z,90.97
2018-08-11T03:54:24.279Z,91.45
2018-08-11T03:55:24.431Z,91.26
2018-08-11T03:56:24.583Z,90.97
2018-08-11T03:57:24.733Z,90.40
2018-08-11T03:58:24.884Z,90.78
2018-08-11T03:59:25.033Z,91.07
2018-08-11T04:00:25.185Z,90.11
2018-08-11T04:01:25.335Z,90.40
2018-08-11T04:02:25.487Z,89.45
2018-08-11T04:03:25.638Z,88.44
2018-08-11T04:04:25.787Z,87.77
2018-08-11T04:05:25.940Z,87.39
2018-08-11T04:06:26.092Z,87.39
2018-08-11T04:07:26.243Z,86.34
2018-08-11T04:08:26.391Z,86.67
2018-08-11T04:09:26.543Z,85.29
2018-08-11T04:10:26.693Z,85.67
2018-08-11T04:11:26.845Z,86.19
2018-08-11T04:12:26.995Z,85.58
2018-08-11T04:13:27.147Z,85.48
2018-08-11T04:14:27.295Z,85.67
2018-08-11T04:15:27.451Z,85.86
2018-08-11T04:16:27.598Z,86.05
2018-08-11T04:17:27.751Z,85.42
2018-08-11T04:18:27.907Z,84.28
2018-08-11T04:19:28.057Z,83.51
2018-08-11T04:20:28.210Z,83.33
2018-08-11T04:21:28.359Z,82.84
2018-08-11T04:22:28.509Z,82.41
2018-08-11T04:23:28.659Z,81.93
2018-08-11T04:24:28.811Z,82.31
2018-08-11T04:25:28.965Z,82.65
2018-08-11T04:26:29.115Z,83.23
2018-08-11T04:27:29.267Z,83.23
2018-08-11T04:28:29.420Z,83.61
2018-08-11T04:29:29.551Z,84.28
2018-08-11T04:30:29.702Z,83.23
2018-08-11T04:31:29.852Z,82.37
2018-08-11T04:32:30.003Z,82.28
2018-08-11T04:33:30.158Z,81.74
2018-08-11T04:34:30.304Z,81.16
2018-08-11T04:35:30.464Z,80.30
2018-08-11T04:36:30.614Z,79.54
2018-08-11T04:37:30.761Z,78.78
2018-08-11T04:38:30.913Z,77.86
2018-08-11T04:39:31.078Z,78.05
2018-08-11T04:40:31.212Z,77.38
2018-08-11T04:41:31.362Z,77.19
2018-08-11T04:42:31.515Z,77.00
2018-08-11T04:43:31.668Z,76.90
2018-08-11T04:44:31.822Z,76.81
2018-08-11T04:45:31.970Z,76.62
2018-08-11T04:46:32.119Z,76.42
2018-08-11T04:47:32.268Z,75.95
2018-08-11T04:48:32.421Z,75.47
2018-08-11T04:49:32.575Z,76.23
2018-08-11T04:50:32.725Z,76.23
2018-08-11T04:51:32.876Z,75.76
2018-08-11T04:52:33.047Z,76.42
2018-08-11T04:53:33.178Z,77.00
2018-08-11T04:54:33.330Z,75.56
2018-08-11T04:55:33.480Z,75.41
2018-08-11T04:56:33.632Z,75.95
2018-08-11T04:57:33.785Z,76.04
2018-08-11T04:58:33.936Z,76.14
2018-08-11T04:59:34.087Z,75.47
2018-08-11T05:00:34.239Z,75.37
2018-08-11T05:01:34.392Z,75.22
2018-08-11T05:02:34.542Z,75.60
2018-08-11T05:03:34.693Z,76.27
2018-08-11T05:04:34.845Z,75.60
2018-08-11T05:05:34.999Z,75.79
2018-08-11T05:06:35.153Z,75.41
2018-08-11T05:07:35.302Z,75.79
2018-08-11T05:08:35.459Z,75.51
2018-08-11T05:09:35.606Z,75.95
2018-08-11T05:10:35.758Z,76.04
2018-08-11T05:11:35.909Z,75.98
2018-08-11T05:12:36.062Z,76.27
2018-08-11T05:13:36.214Z,76.23
2018-08-11T05:14:36.364Z,77.42
2018-08-11T05:15:36.523Z,77.67
2018-08-11T05:16:36.675Z,76.65
2018-08-11T05:17:36.826Z,76.18
2018-08-11T05:18:36.972Z,76.46
2018-08-11T05:19:37.126Z,76.75
2018-08-11T05:20:37.277Z,77.57
2018-08-11T05:21:37.432Z,77.48
2018-08-11T05:22:37.581Z,77.95
2018-08-11T05:23:37.735Z,77.76
2018-08-11T05:24:37.883Z,78.81
2018-08-11T05:25:38.036Z,78.43
2018-08-11T05:26:38.188Z,79.29
2018-08-11T05:27:38.338Z,79.00
2018-08-11T05:28:38.490Z,78.34
2018-08-11T05:29:38.640Z,78.34
2018-08-11T05:30:38.795Z,77.38
2018-08-11T05:31:38.948Z,77.33
2018-08-11T05:32:39.098Z,77.80
2018-08-11T05:33:39.247Z,77.04
2018-08-11T05:34:39.402Z,76.84
2018-08-11T05:35:39.552Z,77.80
2018-08-11T05:36:39.712Z,77.70
2018-08-11T05:37:39.857Z,77.70
2018-08-11T05:38:40.010Z,77.04
2018-08-11T05:39:40.163Z,77.04
2018-08-11T05:40:40.322Z,76.18
2018-08-11T05:41:40.534Z,75.79
2018-08-11T05:42:40.625Z,75.26
2018-08-11T05:43:40.777Z,74.49
2018-08-11T05:44:40.927Z,74.20
2018-08-11T05:45:41.085Z,74.20
2018-08-11T05:46:41.231Z,74.11
2018-08-11T05:47:41.385Z,74.01
2018-08-11T05:48:41.537Z,72.90
2018-08-11T05:49:41.688Z,73.47
2018-08-11T05:50:41.844Z,72.90
2018-08-11T05:51:41.995Z,72.52
2018-08-11T05:52:42.146Z,72.03
2018-08-11T05:53:42.298Z,72.90
2018-08-11T05:54:42.451Z,72.61
2018-08-11T05:55:42.603Z,73.57
2018-08-11T05:56:42.755Z,73.66
2018-08-11T05:57:42.911Z,72.64
2018-08-11T05:58:43.064Z,72.52
2018-08-11T05:59:43.218Z,71.50
2018-08-11T06:00:43.368Z,71.50
2018-08-11T06:01:43.521Z,71.11
2018-08-11T06:02:43.674Z,71.50
2018-08-11T06:03:43.828Z,71.98
2018-08-11T06:04:43.981Z,71.98
2018-08-11T06:05:44.132Z,74.47
2018-08-11T06:06:44.291Z,73.80
2018-08-11T06:07:44.436Z,74.66
2018-08-11T06:08:44.589Z,74.18
2018-08-11T06:09:44.737Z,73.99
2018-08-11T06:10:44.895Z,74.24
2018-08-11T06:11:45.047Z,74.95
2018-08-11T06:12:45.199Z,74.95
2018-08-11T06:13:45.355Z,74.47
2018-08-11T06:14:45.506Z,74.18
2018-08-11T06:15:45.660Z,75.23
2018-08-11T06:16:45.813Z,75.14
2018-08-11T06:17:45.967Z,75.14
2018-08-11T06:18:46.119Z,75.04
2018-08-11T06:19:46.270Z,75.33
2018-08-11T06:20:46.425Z,75.23
2018-08-11T06:21:46.578Z,74.69
2018-08-11T06:22:46.731Z,73.55
2018-08-11T06:23:46.885Z,72.20
2018-08-11T06:24:47.040Z,70.76
2018-08-11T06:25:47.191Z,70.70
2018-08-11T06:26:47.344Z,71.37
2018-08-11T06:27:47.503Z,70.99
2018-08-11T06:28:47.653Z,69.84
2018-08-11T06:29:47.807Z,69.07
2018-08-11T06:30:47.960Z,67.86
2018-08-11T06:31:48.175Z,67.76
2018-08-11T06:32:48.270Z,67.09
2018-08-11T06:33:48.426Z,67.09
2018-08-11T06:34:48.580Z,67.09
2018-08-11T06:35:48.732Z,67.63
2018-08-11T06:36:48.886Z,67.73
2018-08-11T06:37:49.039Z,68.59
2018-08-11T06:38:49.190Z,67.76
2018-08-11T06:39:49.351Z,67.00
2018-08-11T06:40:49.518Z,66.52
2018-08-11T06:41:49.653Z,68.73
2018-08-11T06:42:49.808Z,66.42
2018-08-11T06:43:49.960Z,66.55
2018-08-11T06:44:50.116Z,65.88
2018-08-11T06:45:50.273Z,65.20
2018-08-11T06:46:50.438Z,65.01
2018-08-11T06:47:50.575Z,64.43
2018-08-11T06:48:50.728Z,63.86
2018-08-11T06:49:50.887Z,63.89
2018-08-11T06:50:51.035Z,64.09
2018-08-11T06:51:51.190Z,64.18
2018-08-11T06:52:51.342Z,62.87
2018-08-11T06:53:51.496Z,62.87
2018-08-11T06:54:51.649Z,63.73
2018-08-11T06:55:51.811Z,63.02
2018-08-11T06:56:51.959Z,63.41
2018-08-11T06:57:52.120Z,63.89
2018-08-11T06:58:52.272Z,64.09
2018-08-11T06:59:52.422Z,64.53
2018-08-11T07:00:52.576Z,64.63
2018-08-11T07:01:52.734Z,64.92
2018-08-11T07:02:52.891Z,64.92
2018-08-11T07:03:53.057Z,64.53
2018-08-11T07:04:53.197Z,64.76
2018-08-11T07:05:53.354Z,64.47
2018-08-11T07:06:53.539Z,64.63
2018-08-11T07:07:53.661Z,65.49
2018-08-11T07:08:53.816Z,66.26
2018-08-11T07:09:53.971Z,65.69
2018-08-11T07:10:54.129Z,65.20
2018-08-11T07:11:54.281Z,65.59
2018-08-11T07:12:54.433Z,65.30
2018-08-11T07:13:54.592Z,65.75
2018-08-11T07:14:54.747Z,65.75
2018-08-11T07:15:54.902Z,65.94
2018-08-11T07:16:55.055Z,66.13
2018-08-11T07:17:55.211Z,67.00
2018-08-11T07:18:55.415Z,66.52
2018-08-11T07:19:55.585Z,66.52
2018-08-11T07:20:55.740Z,66.55
2018-08-11T07:21:55.894Z,65.97
2018-08-11T07:22:56.049Z,65.20
2018-08-11T07:23:56.201Z,66.13
2018-08-11T07:24:56.363Z,65.75
2018-08-11T07:25:56.510Z,65.20
2018-08-11T07:26:56.664Z,65.40
2018-08-11T07:27:56.818Z,65.49
2018-08-11T07:28:56.972Z,64.72
2018-08-11T07:29:57.128Z,64.82
2018-08-11T07:30:57.285Z,65.05
2018-08-11T07:31:57.437Z,65.05
2018-08-11T07:32:57.593Z,63.64
2018-08-11T07:33:57.751Z,63.92
2018-08-11T07:34:57.899Z,63.06
2018-08-11T07:35:58.076Z,62.71
2018-08-11T07:36:58.213Z,61.65
2018-08-11T07:37:58.371Z,61.19
2018-08-11T07:38:58.524Z,60.88
2018-08-11T07:39:58.678Z,60.88
2018-08-11T07:40:58.837Z,60.62
2018-08-11T07:41:58.991Z,61.07
2018-08-11T07:42:59.147Z,61.84
2018-08-11T07:43:59.302Z,61.65
2018-08-11T07:44:59.454Z,62.03
2018-08-11T07:45:59.609Z,62.23
2018-08-11T07:46:59.767Z,61.84
2018-08-11T07:47:59.923Z,61.55
2018-08-11T07:49:00.078Z,62.23
2018-08-11T07:50:00.235Z,62.23
2018-08-11T07:51:00.386Z,62.32
2018-08-11T07:52:00.539Z,62.71
2018-08-11T07:53:00.695Z,62.80
2018-08-11T07:54:00.851Z,62.80
2018-08-11T07:55:01.005Z,62.13
2018-08-11T07:56:01.272Z,62.32
2018-08-11T07:57:01.315Z,62.35
2018-08-11T07:58:01.471Z,61.94
2018-08-11T07:59:01.627Z,62.26
2018-08-11T08:00:01.784Z,61.87
2018-08-11T08:01:01.941Z,61.00
2018-08-11T08:02:02.095Z,61.39
2018-08-11T08:03:02.250Z,60.62
2018-08-11T08:04:02.406Z,61.07
2018-08-11T08:05:02.562Z,61.94
2018-08-11T08:06:02.719Z,62.03
2018-08-11T08:07:02.872Z,61.65
2018-08-11T08:08:03.067Z,61.65
2018-08-11T08:09:03.180Z,61.55
2018-08-11T08:10:03.332Z,61.84
2018-08-11T08:11:03.492Z,61.65
2018-08-11T08:12:03.646Z,61.33
2018-08-11T08:13:03.852Z,61.14
2018-08-11T08:14:03.958Z,62.00
2018-08-11T08:15:04.112Z,61.91
2018-08-11T08:16:04.270Z,62.29
2018-08-11T08:17:04.425Z,62.48
2018-08-11T08:18:04.581Z,62.10
2018-08-11T08:19:04.734Z,61.52
2018-08-11T08:20:04.892Z,61.61
2018-08-11T08:21:05.045Z,61.61
2018-08-11T08:22:05.202Z,61.84
2018-08-11T08:23:05.355Z,61.81
2018-08-11T08:24:05.514Z,62.19
2018-08-11T08:25:05.665Z,62.00
2018-08-11T08:26:05.866Z,62.00
2018-08-11T08:27:05.976Z,62.29
2018-08-11T08:28:06.130Z,62.77
2018-08-11T08:29:06.288Z,62.00
2018-08-11T08:30:06.441Z,62.23
2018-08-11T08:31:06.596Z,61.87
2018-08-11T08:32:06.752Z,60.91
2018-08-11T08:33:06.903Z,60.91
2018-08-11T08:34:07.058Z,59.78
2018-08-11T08:35:07.212Z,59.88
2018-08-11T08:36:07.369Z,60.17
2018-08-11T08:37:07.526Z,60.52
2018-08-11T08:38:07.680Z,61.00
2018-08-11T08:39:07.836Z,60.88
2018-08-11T08:40:07.993Z,61.16
2018-08-11T08:41:08.145Z,61.61
2018-08-11T08:42:08.309Z,62.19
2018-08-11T08:43:08.458Z,62.77
2018-08-11T08:44:08.614Z,62.32
2018-08-11T08:45:08.768Z,61.65
2018-08-11T08:46:08.927Z,61.39
2018-08-11T08:47:09.083Z,60.91
2018-08-11T08:48:09.234Z,61.00
2018-08-11T08:49:09.392Z,59.97
2018-08-11T08:50:09.545Z,59.49
2018-08-11T08:51:09.702Z,59.20
2018-08-11T08:52:09.853Z,58.17
2018-08-11T08:53:10.026Z,58.27
2018-08-11T08:54:10.165Z,57.79
2018-08-11T08:55:10.319Z,57.50
2018-08-11T08:56:10.477Z,57.24
2018-08-11T08:57:10.631Z,57.24
2018-08-11T08:58:10.789Z,56.85
2018-08-11T08:59:10.965Z,56.92
2018-08-11T09:00:11.097Z,58.15
2018-08-11T09:01:11.255Z,58.34
2018-08-11T09:02:11.409Z,58.72
2018-08-11T09:03:11.565Z,58.24
2018-08-11T09:04:11.720Z,58.65
2018-08-11T09:05:11.876Z,57.60
2018-08-11T09:06:12.033Z,57.02
2018-08-11T09:07:12.187Z,56.85
2018-08-11T09:08:12.343Z,57.40
2018-08-11T09:09:12.500Z,57.98
2018-08-11T09:10:12.655Z,57.82
2018-08-11T09:11:12.811Z,58.08
2018-08-11T09:12:12.970Z,57.05
2018-08-11T09:13:13.123Z,55.44
2018-08-11T09:14:13.283Z,55.05
2018-08-11T09:15:13.437Z,54.47
2018-08-11T09:16:13.593Z,54.61
2018-08-11T09:17:13.751Z,55.67
2018-08-11T09:18:13.908Z,55.77
2018-08-11T09:19:14.064Z,57.12
2018-08-11T09:20:14.221Z,57.37
2018-08-11T09:21:14.376Z,57.57
2018-08-11T09:22:14.532Z,57.67
2018-08-11T09:23:14.689Z,56.51
2018-08-11T09:24:14.844Z,57.35
2018-08-11T09:25:14.997Z,58.12
2018-08-11T09:26:15.176Z,58.89
2018-08-11T09:27:15.328Z,58.89
2018-08-11T09:28:15.484Z,58.79
2018-08-11T09:29:15.694Z,58.05
2018-08-11T09:30:15.796Z,58.05
2018-08-11T09:31:15.956Z,57.57
2018-08-11T09:32:16.112Z,57.54
2018-08-11T09:33:16.272Z,58.50
2018-08-11T09:34:16.427Z,58.24
2018-08-11T09:35:16.584Z,57.92
2018-08-11T09:36:16.740Z,57.92
2018-08-11T09:37:16.895Z,57.54
2018-08-11T09:38:17.077Z,58.02
2018-08-11T09:39:17.206Z,57.35
2018-08-11T09:40:17.363Z,57.83
2018-08-11T09:41:17.518Z,57.64
2018-08-11T09:42:17.674Z,56.77
2018-08-11T09:43:17.832Z,56.80
2018-08-11T09:44:17.987Z,56.22
2018-08-11T09:45:18.143Z,55.19
2018-08-11T09:46:18.304Z,53.55
2018-08-11T09:47:18.456Z,53.07
2018-08-11T09:48:18.611Z,52.33
2018-08-11T09:49:18.767Z,50.21
2018-08-11T09:50:18.922Z,50.49
2018-08-11T09:51:19.079Z,51.29
2018-08-11T09:52:19.321Z,51.17
2018-08-11T09:53:19.392Z,51.56
2018-08-11T09:54:19.551Z,51.75
2018-08-11T09:55:19.706Z,51.75
2018-08-11T09:56:19.864Z,51.17
2018-08-11T09:57:20.018Z,50.30
2018-08-11T09:58:20.179Z,51.20
2018-08-11T09:59:20.336Z,49.19
2018-08-11T10:00:20.491Z,49.10
2018-08-11T10:01:20.650Z,48.90
2018-08-11T10:02:20.805Z,49.10
2018-08-11T10:03:20.962Z,49.19
2018-08-11T10:04:21.120Z,49.87
2018-08-11T10:05:21.277Z,49.00
2018-08-11T10:06:21.435Z,50.26
2018-08-11T10:07:21.594Z,50.35
2018-08-11T10:08:21.751Z,50.13
2018-08-11T10:09:21.905Z,50.13
2018-08-11T10:10:22.064Z,49.94
2018-08-11T10:11:22.221Z,49.84
2018-08-11T10:12:22.378Z,50.78
2018-08-11T10:13:22.535Z,50.59
2018-08-11T10:14:22.692Z,50.52
2018-08-11T10:15:22.850Z,49.68
2018-08-11T10:16:23.008Z,50.16
2018-08-11T10:17:23.165Z,49.32
2018-08-11T10:18:23.380Z,48.93
2018-08-11T10:19:23.481Z,48.35
2018-08-11T10:20:23.640Z,48.71
2018-08-11T10:21:23.796Z,50.04
2018-08-11T10:22:23.953Z,49.84
2018-08-11T10:23:24.111Z,50.59
2018-08-11T10:24:24.268Z,51.36
2018-08-11T10:25:24.426Z,51.26
2018-08-11T10:26:24.585Z,51.87
2018-08-11T10:27:24.741Z,51.94
2018-08-11T10:28:24.900Z,51.48
2018-08-11T10:29:25.068Z,50.81
2018-08-11T10:30:25.213Z,50.52
2018-08-11T10:31:25.375Z,50.13
2018-08-11T10:32:25.529Z,51.58
2018-08-11T10:33:25.687Z,51.46
2018-08-11T10:34:25.840Z,50.98
2018-08-11T10:35:25.998Z,51.17
2018-08-11T10:36:26.159Z,51.94
2018-08-11T10:37:26.313Z,51.36
2018-08-11T10:38:26.470Z,52.42
2018-08-11T10:39:26.630Z,52.49
2018-08-11T10:40:26.786Z,52.78
2018-08-11T10:41:26.948Z,52.97
2018-08-11T10:42:27.104Z,53.07
2018-08-11T10:43:27.302Z,53.39
2018-08-11T10:44:27.412Z,53.13
2018-08-11T10:45:27.569Z,50.42
2018-08-11T10:46:27.726Z,49.19
2018-08-11T10:47:27.886Z,48.42
2018-08-11T10:48:28.033Z,46.20
2018-08-11T10:49:28.188Z,45.84
2018-08-11T10:50:28.342Z,43.91
2018-08-11T10:51:28.500Z,44.12
2018-08-11T10:52:28.757Z,42.58
2018-08-11T10:53:28.856Z,42.58
2018-08-11T10:54:29.000Z,43.08
2018-08-11T10:55:29.108Z,43.37
2018-08-11T10:56:29.293Z,41.05
2018-08-11T10:57:29.411Z,40.98
2018-08-11T10:58:29.561Z,40.40
2018-08-11T10:59:29.707Z,39.82
2018-08-11T11:00:29.863Z,39.55
2018-08-11T11:01:30.019Z,38.85
2018-08-11T11:02:30.183Z,39.64
2018-08-11T11:03:30.350Z,39.16
2018-08-11T11:04:30.492Z,39.74
2018-08-11T11:05:30.649Z,41.58
2018-08-11T11:06:30.807Z,42.33
2018-08-11T11:07:30.960Z,42.91
2018-08-11T11:08:31.227Z,43.88
2018-08-11T11:09:31.277Z,44.34
2018-08-11T11:10:31.454Z,45.00
2018-08-11T11:11:31.591Z,45.07
2018-08-11T11:12:31.763Z,46.13
2018-08-11T11:13:31.901Z,46.88
2018-08-11T11:14:32.053Z,46.59
2018-08-11T11:15:32.219Z,47.00
2018-08-11T11:16:32.367Z,47.38
2018-08-11T11:17:32.510Z,46.61
2018-08-11T11:18:32.656Z,46.61
2018-08-11T11:19:32.803Z,45.67
2018-08-11T11:20:32.983Z,45.09
2018-08-11T11:21:33.125Z,44.12
2018-08-11T11:22:33.281Z,43.93
2018-08-11T11:23:33.426Z,43.18
2018-08-11T11:24:33.583Z,43.95
2018-08-11T11:25:33.757Z,42.82
2018-08-11T11:26:33.891Z,42.43
2018-08-11T11:27:34.031Z,41.56
2018-08-11T11:28:34.181Z,41.75
2018-08-11T11:29:34.357Z,41.46
2018-08-11T11:30:34.481Z,41.46
2018-08-11T11:31:34.650Z,40.71
2018-08-11T11:32:34.776Z,40.13
2018-08-11T11:33:34.934Z,39.86
2018-08-11T11:34:35.143Z,38.68
2018-08-11T11:35:35.256Z,38.78
2018-08-11T11:36:35.425Z,37.92
2018-08-11T11:37:35.580Z,39.37
2018-08-11T11:38:35.724Z,38.60
2018-08-11T11:39:35.893Z,38.70
2018-08-11T11:40:36.037Z,36.84
2018-08-11T11:41:36.215Z,37.90
2018-08-11T11:42:36.337Z,37.71
2018-08-11T11:43:36.507Z,38.70
2018-08-11T11:44:36.659Z,37.82
2018-08-11T11:45:36.813Z,37.34
2018-08-11T11:46:36.968Z,37.63
2018-08-11T11:47:37.127Z,37.05
2018-08-11T11:48:37.283Z,36.18
2018-08-11T11:49:37.439Z,36.18
2018-08-11T11:50:37.605Z,36.86
2018-08-11T11:51:37.758Z,36.00
2018-08-11T11:52:37.913Z,35.50
2018-08-11T11:53:38.076Z,35.60
2018-08-11T11:54:38.235Z,35.50
2018-08-11T11:55:38.395Z,36.18
2018-08-11T11:56:38.553Z,36.76
2018-08-11T11:57:38.715Z,35.52
2018-08-11T11:58:38.870Z,35.13
2018-08-11T11:59:39.028Z,35.15
2018-08-11T12:00:39.188Z,35.15
2018-08-11T12:01:39.382Z,35.62
2018-08-11T12:02:39.503Z,35.42
2018-08-11T12:03:39.686Z,35.62
2018-08-11T12:04:39.846Z,35.89
2018-08-11T12:05:39.983Z,35.68
2018-08-11T12:06:40.119Z,36.65
2018-08-11T12:07:40.279Z,37.24
2018-08-11T12:08:40.436Z,36.86
2018-08-11T12:09:40.592Z,35.91
2018-08-11T12:10:40.756Z,35.54
2018-08-11T12:11:40.915Z,34.94
2018-08-11T12:12:41.073Z,34.36
2018-08-11T12:13:41.239Z,33.87
2018-08-11T12:14:41.395Z,33.87
2018-08-11T12:15:41.557Z,34.55
2018-08-11T12:16:41.716Z,34.67
2018-08-11T12:17:41.875Z,34.11
2018-08-11T12:18:42.034Z,32.54
2018-08-11T12:19:42.195Z,33.04
2018-08-11T12:20:42.354Z,33.54
2018-08-11T12:21:42.520Z,33.62
2018-08-11T12:22:42.677Z,33.14
2018-08-11T12:23:42.838Z,32.76
2018-08-11T12:24:42.997Z,33.15
2018-08-11T12:25:43.158Z,32.46
2018-08-11T12:26:43.318Z,33.42
2018-08-11T12:27:43.476Z,31.70
2018-08-11T12:28:43.637Z,32.07
2018-08-11T12:29:43.798Z,31.87
2018-08-11T12:30:43.958Z,32.07
2018-08-11T12:31:44.120Z,31.87
2018-08-11T12:32:44.281Z,31.70
2018-08-11T12:33:44.440Z,31.68
2018-08-11T12:34:44.596Z,31.59
2018-08-11T12:35:44.762Z,31.47
2018-08-11T12:36:44.919Z,31.46
2018-08-11T12:37:45.115Z,33.01
2018-08-11T12:38:45.238Z,33.09
2018-08-11T12:39:45.400Z,33.29
2018-08-11T12:40:45.558Z,33.26
2018-08-11T12:41:45.722Z,34.13
2018-08-11T12:42:45.877Z,34.89
2018-08-11T12:43:46.036Z,35.86
2018-08-11T12:44:46.195Z,36.05
2018-08-11T12:45:46.415Z,35.95
2018-08-11T12:46:46.520Z,37.12
2018-08-11T12:47:46.674Z,36.15
2018-08-11T12:48:46.836Z,35.94
2018-08-11T12:49:46.992Z,35.94
2018-08-11T12:50:47.150Z,36.63
2018-08-11T12:51:47.319Z,36.05
2018-08-11T12:52:47.475Z,36.65
2018-08-11T12:53:47.639Z,36.66
2018-08-11T12:54:47.796Z,36.10